Time;durP1;ratioP1;P1;durP2;ratioP2;P2;SDS_P1;SDS_P2;PMS_P1;PMS_P2;Temp;Humidity;BMP_temperature;BMP_pressure;BME280_temperature;BME280_humidity;BME280_pressure;Samples;Min_cycle;Max_cycle;Signal;HPM_P1;HPM_P2
2022/10/06 00:01:04;;;;;;;5.82;2.65;;;;;;;18.62;63.81;97964.78;4913311;28;20278;-76
2022/10/06 00:03:29;;;;;;;3.67;2.60;;;;;;;18.81;63.41;97976.22;4926532;28;20340;-76
2022/10/06 00:05:59;;;;;;;4.40;2.15;;;;;;;18.68;63.43;97968.97;4947969;28;20357;-77
2022/10/06 00:08:24;;;;;;;4.78;2.58;;;;;;;18.76;63.16;97970.19;4930133;28;20178;-76
2022/10/06 00:10:54;;;;;;;2.88;2.63;;;;;;;18.49;64.26;97966.19;4913820;28;20281;-76
2022/10/06 00:13:19;;;;;;;4.97;2.40;;;;;;;18.76;63.51;97972.84;4930086;28;20395;-76
2022/10/06 00:15:44;;;;;;;4.75;2.28;;;;;;;18.77;63.49;97975.19;4941518;28;20350;-77
2022/10/06 00:18:10;;;;;;;4.00;2.40;;;;;;;18.75;63.63;97977.34;4947570;28;20203;-76
2022/10/06 00:20:35;;;;;;;3.13;2.40;;;;;;;18.71;63.60;97981.56;4926500;28;20146;-76
2022/10/06 00:23:00;;;;;;;3.25;2.95;;;;;;;18.61;64.04;97976.38;4928940;28;20172;-76
2022/10/06 00:25:27;;;;;;;3.40;2.70;;;;;;;18.74;63.48;97977.59;4913885;28;20638;-76
2022/10/06 00:27:52;;;;;;;2.90;2.55;;;;;;;18.68;63.88;97982.16;4945497;28;20274;-76
2022/10/06 00:30:23;;;;;;;4.65;2.63;;;;;;;18.51;64.41;97993.09;4946385;28;20211;-77
2022/10/06 00:32:56;;;;;;;4.50;2.38;;;;;;;18.63;63.72;97982.19;4945022;28;20199;-76
2022/10/06 00:35:22;;;;;;;3.17;2.45;;;;;;;18.68;63.58;97990.06;4920815;28;20189;-76
2022/10/06 00:37:48;;;;;;;3.78;2.70;;;;;;;18.65;63.75;97999.31;4950367;28;20660;-76
2022/10/06 00:40:13;;;;;;;5.95;3.70;;;;;;;18.66;64.04;97997.44;4929891;28;20192;-76
2022/10/06 00:42:56;;;;;;;3.28;2.72;;;;;;;18.48;64.00;98014.75;4946125;28;20190;-76
2022/10/06 00:45:25;;;;;;;7.05;2.60;;;;;;;18.62;63.63;98017.53;4948698;28;20172;-76
2022/10/06 00:47:52;;;;;;;4.75;3.03;;;;;;;18.68;64.24;98019.88;4913735;28;20185;-76
2022/10/06 00:50:17;;;;;;;3.70;2.50;;;;;;;18.70;64.47;98016.94;4930613;28;20611;-76
2022/10/06 00:52:43;;;;;;;2.80;2.53;;;;;;;18.58;64.77;98019.16;4931451;28;20250;-76
2022/10/06 00:55:08;;;;;;;3.83;2.63;;;;;;;18.78;64.62;98026.91;4948356;28;20145;-76
2022/10/06 00:57:36;;;;;;;5.20;3.05;;;;;;;18.82;63.87;98029.78;4947020;28;20706;-76
2022/10/06 01:00:04;;;;;;;5.22;2.80;;;;;;;18.78;64.56;98029.56;4941455;28;20165;-76
2022/10/06 01:02:38;;;;;;;4.93;2.85;;;;;;;18.83;64.25;98034.81;4939305;28;20234;-76
2022/10/06 01:05:04;;;;;;;3.28;2.53;;;;;;;19.07;63.59;98040.16;4944872;28;20179;-76
2022/10/06 01:07:30;;;;;;;4.68;2.95;;;;;;;19.11;63.43;98039.56;4929710;28;20655;-77
2022/10/06 01:09:56;;;;;;;7.10;3.05;;;;;;;19.04;63.93;98040.69;4945512;28;20219;-76
2022/10/06 01:12:23;;;;;;;2.72;2.45;;;;;;;19.07;63.95;98037.50;4946215;28;20222;-76
2022/10/06 01:14:48;;;;;;;5.95;2.90;;;;;;;19.09;64.09;98038.00;4929247;28;20157;-76
2022/10/06 01:17:36;;;;;;;5.53;2.53;;;;;;;18.97;63.98;98034.16;4909377;28;20242;-76
2022/10/06 01:20:07;;;;;;;5.00;2.92;;;;;;;19.09;63.48;98045.94;4945780;28;20244;-76
2022/10/06 01:22:34;;;;;;;7.68;3.38;;;;;;;19.15;63.60;98043.25;4946851;28;20269;-76
2022/10/06 01:25:00;;;;;;;7.65;3.35;;;;;;;19.12;63.63;98047.22;4945367;28;20270;-76
2022/10/06 01:27:28;;;;;;;5.50;2.70;;;;;;;19.11;63.49;98043.00;4914530;28;20204;-76
2022/10/06 01:29:54;;;;;;;3.17;2.83;;;;;;;19.31;62.82;98046.50;4929310;28;20192;-76
2022/10/06 01:32:21;;;;;;;6.68;3.00;;;;;;;19.35;62.84;98056.25;4946144;28;20206;-76
2022/10/06 01:34:46;;;;;;;4.90;2.95;;;;;;;19.47;62.78;98069.06;4945488;28;20276;-77
2022/10/06 01:37:12;;;;;;;5.20;3.33;;;;;;;19.39;62.87;98062.53;4947006;28;20792;-76
2022/10/06 01:39:37;;;;;;;4.40;3.10;;;;;;;19.48;62.51;98070.63;4946994;28;20285;-76
2022/10/06 01:42:02;;;;;;;5.32;3.15;;;;;;;19.50;62.42;98067.72;4946016;28;20268;-76
2022/10/06 01:44:28;;;;;;;5.78;3.15;;;;;;;19.49;62.74;98071.44;4926580;28;20266;-76
2022/10/06 01:46:53;;;;;;;7.55;3.05;;;;;;;19.55;62.18;98073.75;4929682;28;20250;-76
2022/10/06 01:49:19;;;;;;;5.50;3.85;;;;;;;19.43;62.77;98068.84;4929789;28;20196;-76
2022/10/06 01:51:46;;;;;;;5.35;3.13;;;;;;;19.42;62.99;98077.81;4913917;28;20358;-76
2022/10/06 01:54:11;;;;;;;5.53;3.33;;;;;;;19.49;62.58;98074.84;4946651;28;20192;-76
2022/10/06 01:56:37;;;;;;;5.13;3.40;;;;;;;19.40;63.06;98073.91;4946338;28;20715;-76
2022/10/06 01:59:02;;;;;;;4.90;3.67;;;;;;;19.37;63.18;98080.53;4929080;28;20265;-76
2022/10/06 02:01:28;;;;;;;5.43;4.00;;;;;;;19.45;62.71;98079.13;4946333;28;20191;-76
2022/10/06 02:03:53;;;;;;;4.65;3.42;;;;;;;19.52;62.50;98079.59;4945645;28;20286;-76
2022/10/06 02:06:18;;;;;;;9.45;3.53;;;;;;;19.57;62.18;98081.38;4913720;28;20290;-76
2022/10/06 02:08:44;;;;;;;7.30;3.97;;;;;;;19.54;62.67;98080.09;4929728;28;20247;-76
2022/10/06 02:11:10;;;;;;;5.32;3.08;;;;;;;19.55;62.56;98083.50;4926178;28;20166;-76
2022/10/06 02:13:36;;;;;;;5.53;3.50;;;;;;;19.51;62.55;98091.22;4946296;28;20177;-76
2022/10/06 02:16:05;;;;;;;5.60;3.65;;;;;;;19.57;62.39;98089.28;4945140;28;20661;-76
2022/10/06 02:18:31;;;;;;;5.03;4.00;;;;;;;19.60;62.28;98097.47;4945761;28;20203;-77
2022/10/06 02:20:56;;;;;;;5.63;3.85;;;;;;;19.61;62.32;98109.59;4943873;28;20315;-76
2022/10/06 02:23:22;;;;;;;6.88;4.00;;;;;;;19.62;62.35;98108.53;4927911;28;20737;-76
2022/10/06 02:25:47;;;;;;;5.95;3.75;;;;;;;19.54;63.00;98121.56;4929230;28;20653;-76
2022/10/06 02:28:13;;;;;;;4.03;3.60;;;;;;;19.52;62.89;98124.50;4929112;28;20326;-76
2022/10/06 02:30:39;;;;;;;6.25;3.88;;;;;;;19.56;62.65;98130.78;4925293;28;20224;-76
2022/10/06 02:33:04;;;;;;;6.93;3.13;;;;;;;19.62;62.45;98127.03;4928266;28;20207;-76
2022/10/06 02:35:29;;;;;;;7.40;3.75;;;;;;;19.59;62.68;98132.88;4928349;28;20302;-76
2022/10/06 02:37:55;;;;;;;4.57;3.22;;;;;;;19.43;62.85;98126.16;4912409;28;20635;-76
2022/10/06 02:40:21;;;;;;;5.90;2.85;;;;;;;19.40;61.96;98143.34;4943998;28;20654;-76
2022/10/06 02:42:47;;;;;;;6.00;2.42;;;;;;;19.37;62.06;98156.31;4911966;28;20369;-76
2022/10/06 02:45:13;;;;;;;3.58;1.90;;;;;;;19.45;61.53;98145.94;4943660;28;20326;-76
2022/10/06 02:47:38;;;;;;;4.50;2.20;;;;;;;19.47;60.82;98150.94;4928406;28;20337;-76
2022/10/06 02:50:06;;;;;;;2.88;1.88;;;;;;;19.34;61.17;98159.50;4943869;28;20294;-76
2022/10/06 02:52:33;;;;;;;3.70;1.80;;;;;;;19.29;60.82;98168.25;4943988;28;20187;-76
2022/10/06 02:55:05;;;;;;;2.42;1.10;;;;;;;18.95;59.48;98170.88;4910813;28;20193;-76
2022/10/06 02:57:30;;;;;;;1.95;1.42;;;;;;;19.18;59.50;98177.34;4912730;28;20193;-76
2022/10/06 02:59:56;;;;;;;1.17;0.50;;;;;;;19.07;56.77;98169.50;4944016;28;20188;-75
2022/10/06 03:02:22;;;;;;;1.88;0.68;;;;;;;18.98;56.83;98179.03;4944820;28;20205;-76
2022/10/06 03:04:47;;;;;;;1.90;0.80;;;;;;;19.07;56.62;98184.53;4944767;28;20203;-76
2022/10/06 03:07:13;;;;;;;3.20;0.80;;;;;;;19.03;56.27;98186.13;4929276;28;20299;-76
2022/10/06 03:09:39;;;;;;;1.10;0.65;;;;;;;18.98;55.67;98191.47;4946375;28;20275;-76
2022/10/06 03:12:04;;;;;;;3.88;0.90;;;;;;;19.00;54.70;98189.31;4945367;28;20310;-77
2022/10/06 03:14:29;;;;;;;6.57;0.98;;;;;;;18.98;54.24;98194.09;4944275;28;20369;-77
2022/10/06 03:16:55;;;;;;;3.63;0.40;;;;;;;19.01;53.54;98188.28;4928445;28;20195;-77
2022/10/06 03:19:21;;;;;;;3.03;0.50;;;;;;;18.81;54.36;98189.16;4944082;28;20677;-76
2022/10/06 03:21:47;;;;;;;1.95;0.50;;;;;;;18.85;54.04;98208.66;4944180;28;20294;-76
2022/10/06 03:24:12;;;;;;;2.00;0.30;;;;;;;18.88;54.38;98211.56;4938151;28;20192;-77
2022/10/06 03:26:40;;;;;;;2.53;0.80;;;;;;;18.79;55.07;98207.88;4944743;28;20268;-77
2022/10/06 03:29:06;;;;;;;2.30;0.40;;;;;;;18.72;55.11;98223.22;4944166;28;20194;-77
2022/10/06 03:31:32;;;;;;;1.73;0.28;;;;;;;18.68;55.22;98211.66;4945222;28;20782;-77
2022/10/06 03:33:57;;;;;;;1.90;0.70;;;;;;;18.64;56.03;98221.94;4945509;28;20244;-76
2022/10/06 03:36:25;;;;;;;1.75;1.00;;;;;;;18.69;53.34;98226.41;4916078;28;20190;-76
2022/10/06 03:38:50;;;;;;;2.05;0.57;;;;;;;18.64;53.76;98234.34;4947962;28;20164;-76
2022/10/06 03:41:21;;;;;;;1.48;0.30;;;;;;;18.55;53.56;98228.06;4948421;28;20714;-77
2022/10/06 03:43:48;;;;;;;2.08;0.50;;;;;;;18.71;54.08;98237.47;4950457;28;20273;-77
2022/10/06 03:46:19;;;;;;;0.60;0.30;;;;;;;18.57;54.41;98236.50;4948359;28;20196;-76
2022/10/06 03:48:45;;;;;;;1.45;0.40;;;;;;;18.57;55.79;98237.28;4948494;28;20196;-77
2022/10/06 03:51:15;;;;;;;0.93;0.30;;;;;;;18.42;55.65;98246.03;4931891;28;20232;-77
2022/10/06 03:53:43;;;;;;;1.02;0.45;;;;;;;18.42;55.03;98256.59;4931849;28;20234;-77
2022/10/06 03:56:26;;;;;;;1.80;0.57;;;;;;;18.27;54.19;98259.28;4947846;28;20211;-77
2022/10/06 03:58:58;;;;;;;1.67;0.70;;;;;;;18.38;54.37;98271.34;4947910;28;20278;-76
2022/10/06 04:01:29;;;;;;;2.45;0.35;;;;;;;18.40;53.42;98269.22;4932231;28;20253;-76
2022/10/06 04:03:56;;;;;;;2.30;0.30;;;;;;;18.51;53.64;98270.00;4916300;28;20196;-76
2022/10/06 04:06:23;;;;;;;3.05;0.40;;;;;;;18.48;53.70;98271.31;4929299;28;20268;-77
2022/10/06 04:08:49;;;;;;;2.17;0.40;;;;;;;18.53;53.06;98270.53;4929239;28;20201;-76
2022/10/06 04:11:19;;;;;;;2.03;0.60;;;;;;;18.45;53.85;98273.72;4949184;28;20187;-76
2022/10/06 04:13:44;;;;;;;2.67;0.40;;;;;;;18.42;54.80;98287.44;4928698;28;20543;-76
2022/10/06 04:16:17;;;;;;;3.38;0.40;;;;;;;18.31;55.60;98290.09;4916390;28;20183;-76
2022/10/06 04:18:43;;;;;;;1.95;0.43;;;;;;;18.29;55.91;98294.84;4931244;28;20188;-76
2022/10/06 04:21:09;;;;;;;2.92;0.47;;;;;;;18.28;55.67;98297.75;4931543;28;20254;-76
2022/10/06 04:23:37;;;;;;;1.95;0.40;;;;;;;18.26;56.49;98311.19;4948697;28;20246;-76
2022/10/06 04:26:12;;;;;;;4.25;1.13;;;;;;;18.06;56.62;98314.66;4931749;28;20259;-77
2022/10/06 04:28:39;;;;;;;4.13;0.47;;;;;;;18.10;56.97;98310.44;4947955;28;20184;-76
2022/10/06 04:31:18;;;;;;;1.45;0.30;;;;;;;17.96;57.29;98315.44;4931201;28;20168;-77
2022/10/06 04:33:45;;;;;;;0.90;0.40;;;;;;;18.06;57.41;98319.94;4914764;28;20684;-77
2022/10/06 04:36:35;;;;;;;2.47;0.45;;;;;;;17.81;58.08;98325.94;4915527;28;21469;-77
2022/10/06 04:39:02;;;;;;;2.58;0.52;;;;;;;17.99;58.10;98322.00;4931581;28;20338;-76
2022/10/06 04:41:30;;;;;;;3.22;0.30;;;;;;;17.94;58.08;98324.66;4931827;28;20239;-76
2022/10/06 04:43:56;;;;;;;0.55;0.32;;;;;;;17.96;57.95;98327.84;4946765;28;20173;-76
2022/10/06 04:46:22;;;;;;;2.67;0.25;;;;;;;17.91;57.49;98327.84;4914352;28;20256;-77
2022/10/06 04:48:52;;;;;;;2.97;0.70;;;;;;;17.76;57.83;98318.81;4927678;28;20216;-77
2022/10/06 04:51:18;;;;;;;1.30;0.30;;;;;;;17.90;57.75;98323.63;4944576;28;20275;-76
2022/10/06 04:53:44;;;;;;;3.47;0.95;;;;;;;17.84;58.05;98322.00;4962517;28;20254;-76
2022/10/06 04:56:13;;;;;;;3.35;0.50;;;;;;;17.75;58.32;98327.81;4931651;28;20587;-76
2022/10/06 04:58:41;;;;;;;2.50;0.70;;;;;;;17.83;58.13;98321.22;4948412;28;20241;-76
2022/10/06 05:01:20;;;;;;;1.80;0.70;;;;;;;17.68;58.73;98329.88;4946368;28;20645;-76
2022/10/06 05:03:47;;;;;;;2.55;0.40;;;;;;;17.79;58.89;98334.13;4914270;28;20196;-77
2022/10/06 05:06:18;;;;;;;2.65;0.40;;;;;;;17.72;58.87;98335.44;4946243;28;20227;-76
2022/10/06 05:08:52;;;;;;;3.20;0.75;;;;;;;17.71;59.15;98345.16;4946105;28;20207;-77
2022/10/06 05:11:18;;;;;;;1.88;0.40;;;;;;;17.79;59.49;98346.50;4929983;28;20192;-77
2022/10/06 05:13:43;;;;;;;2.55;0.60;;;;;;;17.83;59.07;98352.03;4946321;28;20513;-76
2022/10/06 05:16:11;;;;;;;3.75;0.60;;;;;;;17.73;59.61;98355.44;4948158;28;20207;-76
2022/10/06 05:18:37;;;;;;;2.30;0.43;;;;;;;17.81;59.39;98354.94;4939890;28;20219;-76
2022/10/06 05:21:11;;;;;;;2.28;0.40;;;;;;;17.71;59.36;98347.78;4930190;28;20191;-76
2022/10/06 05:23:38;;;;;;;2.25;0.40;;;;;;;17.73;59.44;98350.97;4962768;28;20207;-77
2022/10/06 05:26:04;;;;;;;2.20;0.40;;;;;;;17.69;59.55;98360.44;4917010;28;20256;-76
2022/10/06 05:28:30;;;;;;;2.53;0.52;;;;;;;17.68;59.58;98369.38;4913639;28;20364;-76
2022/10/06 05:31:01;;;;;;;2.63;0.40;;;;;;;17.43;59.89;98367.50;4929827;28;20603;-77
2022/10/06 05:33:29;;;;;;;2.15;0.40;;;;;;;17.40;60.06;98374.06;4945542;28;20280;-76
2022/10/06 05:36:16;;;;;;;1.63;0.73;;;;;;;17.27;60.02;98384.28;4945183;28;20208;-76
2022/10/06 05:38:42;;;;;;;2.90;0.70;;;;;;;17.49;60.32;98382.25;4945165;28;20359;-76
2022/10/06 05:41:14;;;;;;;2.38;0.60;;;;;;;17.30;60.72;98387.19;4945161;28;20157;-76
2022/10/06 05:43:40;;;;;;;3.83;0.82;;;;;;;17.39;60.47;98395.38;4928605;28;20211;-76
2022/10/06 05:46:09;;;;;;;3.53;1.00;;;;;;;17.26;60.92;98403.78;4945044;28;20212;-76
2022/10/06 05:48:34;;;;;;;3.20;0.57;;;;;;;17.28;60.63;98399.84;4944755;28;20169;-77
2022/10/06 05:51:08;;;;;;;3.97;1.00;;;;;;;17.14;60.70;98406.63;4946100;28;20377;-76
2022/10/06 05:53:35;;;;;;;1.98;0.68;;;;;;;17.27;60.87;98403.50;4913511;28;20297;-76
2022/10/06 05:56:08;;;;;;;3.88;0.77;;;;;;;17.13;60.93;98405.81;4945949;28;20779;-76
2022/10/06 05:58:35;;;;;;;5.28;0.80;;;;;;;17.23;61.20;98410.34;4913164;28;20188;-76
2022/10/06 06:01:14;;;;;;;4.85;0.63;;;;;;;17.07;61.00;98403.41;4945462;28;20228;-76
2022/10/06 06:03:41;;;;;;;2.65;0.43;;;;;;;17.14;60.82;98417.94;4943132;28;20286;-76
2022/10/06 06:06:19;;;;;;;2.47;0.57;;;;;;;16.83;61.60;98416.97;4945933;28;20253;-76
2022/10/06 06:08:44;;;;;;;6.53;1.27;;;;;;;16.94;61.25;98423.88;4945675;28;20232;-76
2022/10/06 06:11:11;;;;;;;2.15;0.70;;;;;;;16.94;61.74;98429.13;4943494;28;20195;-76
2022/10/06 06:13:36;;;;;;;5.00;0.65;;;;;;;16.91;61.63;98432.28;4929271;28;20223;-76
2022/10/06 06:16:03;;;;;;;5.22;0.80;;;;;;;16.90;62.12;98438.59;4929594;28;20346;-76
2022/10/06 06:18:33;;;;;;;3.85;0.60;;;;;;;16.75;61.98;98438.47;4939166;28;20189;-76
2022/10/06 06:21:00;;;;;;;2.58;1.27;;;;;;;16.77;62.08;98452.16;4928913;28;20207;-76
2022/10/06 06:23:40;;;;;;;6.20;0.80;;;;;;;16.62;62.56;98461.53;4944886;28;20619;-76
2022/10/06 06:26:07;;;;;;;2.92;0.65;;;;;;;16.71;62.21;98458.41;4950697;28;20313;-76
2022/10/06 06:28:34;;;;;;;4.82;0.93;;;;;;;16.71;62.42;98451.34;4929741;28;20581;-76
2022/10/06 06:31:06;;;;;;;2.88;0.77;;;;;;;16.65;62.69;98463.63;4912617;28;20574;-76
2022/10/06 06:33:32;;;;;;;5.80;1.52;;;;;;;16.77;62.64;98462.69;4911859;28;20172;-76
2022/10/06 06:36:01;;;;;;;4.78;0.80;;;;;;;16.79;62.74;98469.28;4915309;28;20216;-76
2022/10/06 06:38:27;;;;;;;2.22;0.55;;;;;;;16.87;62.91;98470.66;4927197;28;20178;-76
2022/10/06 06:40:52;;;;;;;4.75;1.00;;;;;;;16.96;62.74;98479.66;4944836;28;20708;-76
2022/10/06 06:43:18;;;;;;;7.10;0.80;;;;;;;17.02;62.72;98485.78;4928495;28;20275;-76
2022/10/06 06:45:43;;;;;;;4.15;0.93;;;;;;;17.10;62.24;98490.56;4944539;28;20273;-76
2022/10/06 06:48:14;;;;;;;5.50;1.42;;;;;;;17.14;61.63;98498.75;4944414;28;20204;-76
2022/10/06 06:50:39;;;;;;;5.47;0.80;;;;;;;17.25;61.23;98497.72;4912354;28;20306;-76
2022/10/06 06:53:05;;;;;;;5.28;1.00;;;;;;;17.31;61.94;98507.25;4938145;28;20321;-76
2022/10/06 06:55:30;;;;;;;3.45;0.55;;;;;;;17.38;60.73;98502.53;4928264;28;20224;-76
2022/10/06 06:57:56;;;;;;;4.40;0.60;;;;;;;17.45;60.12;98507.59;4937954;28;20279;-76
2022/10/06 07:00:22;;;;;;;4.00;0.70;;;;;;;17.55;59.22;98512.91;4927759;28;20674;-76
2022/10/06 07:02:57;;;;;;;4.72;1.17;;;;;;;17.69;59.24;98512.44;4945464;28;20279;-76
2022/10/06 07:05:23;;;;;;;3.38;1.00;;;;;;;17.76;58.97;98518.25;4917291;28;20372;-76
2022/10/06 07:07:48;;;;;;;4.80;1.77;;;;;;;17.81;58.57;98520.91;4945555;28;20187;-76
2022/10/06 07:10:13;;;;;;;3.17;0.90;;;;;;;17.93;57.50;98518.09;4908809;28;20250;-76
2022/10/06 07:12:39;;;;;;;3.75;1.30;;;;;;;18.08;56.93;98526.03;4960183;28;20277;-76
2022/10/06 07:26:01;;;;;;;;;;;;;;;17.85;54.04;98545.69;4945095;28;20199;-76
2022/10/06 07:28:29;;;;;;;2.80;0.90;;;;;;;18.37;53.24;98543.22;4943950;28;20520;-76
2022/10/06 07:30:55;;;;;;;5.35;1.33;;;;;;;18.50;50.39;98548.78;4944064;28;20114;-76
2022/10/06 07:33:21;;;;;;;6.70;1.48;;;;;;;18.55;49.28;98561.19;4934709;28;20165;-76
2022/10/06 07:35:46;;;;;;;4.45;1.02;;;;;;;18.17;50.94;98555.31;4914520;28;20334;-76
2022/10/06 07:38:11;;;;;;;7.07;1.23;;;;;;;18.22;50.00;98559.81;4905361;28;20244;-76
2022/10/06 07:40:37;;;;;;;3.92;1.13;;;;;;;18.38;49.52;98566.69;4944131;28;20203;-76
2022/10/06 07:43:02;;;;;;;4.60;1.50;;;;;;;18.40;49.70;98564.56;4943606;28;20208;-76
2022/10/06 07:45:37;;;;;;;5.18;1.42;;;;;;;18.35;50.93;98572.47;4922807;28;20252;-76
2022/10/06 07:48:08;;;;;;;4.68;1.10;;;;;;;18.32;51.17;98570.38;4944022;28;20294;-76
2022/10/06 07:50:34;;;;;;;6.80;0.90;;;;;;;18.30;51.03;98573.28;4945526;28;20215;-76
2022/10/06 07:53:06;;;;;;;5.80;1.20;;;;;;;18.42;51.05;98577.50;4911557;28;20202;-76
2022/10/06 07:55:31;;;;;;;4.93;0.60;;;;;;;18.52;50.85;98578.34;4945436;28;20181;-76
2022/10/06 07:57:57;;;;;;;5.70;0.88;;;;;;;18.71;50.65;98575.16;4928136;28;20204;-77
2022/10/06 08:00:22;;;;;;;3.92;1.08;;;;;;;18.77;50.49;98576.78;4945740;28;20271;-76
2022/10/06 08:02:48;;;;;;;7.35;1.80;;;;;;;18.95;50.26;98580.75;4945365;28;20377;-76
2022/10/06 08:05:13;;;;;;;6.65;1.05;;;;;;;19.00;50.28;98580.75;4928104;28;20191;-76
2022/10/06 08:07:39;;;;;;;5.57;0.98;;;;;;;19.11;50.50;98586.84;4943684;28;20553;-76
2022/10/06 08:10:05;;;;;;;4.32;1.00;;;;;;;19.25;49.75;98587.09;4908272;28;20200;-76
2022/10/06 08:12:33;;;;;;;5.50;1.30;;;;;;;19.25;50.74;98587.88;4906259;28;20259;-76
2022/10/06 08:15:02;;;;;;;6.55;1.30;;;;;;;19.58;49.62;98598.91;4940861;28;20697;-76
2022/10/06 08:17:28;;;;;;;5.72;0.90;;;;;;;19.65;49.01;98588.88;4942273;28;20269;-76
2022/10/06 08:19:54;;;;;;;6.07;1.20;;;;;;;19.75;49.44;98585.41;4944989;28;20672;-76
2022/10/06 08:22:21;;;;;;;3.63;1.02;;;;;;;19.61;51.13;98593.09;4946986;28;20296;-76
2022/10/06 08:24:46;;;;;;;3.97;1.38;;;;;;;19.71;50.30;98591.50;4915231;28;20281;-76
2022/10/06 08:27:12;;;;;;;3.63;0.90;;;;;;;19.74;50.32;98597.06;4915703;28;20357;-76
2022/10/06 08:29:37;;;;;;;5.75;1.45;;;;;;;19.80;50.01;98600.47;4947604;28;20650;-77
2022/10/06 08:32:03;;;;;;;5.13;1.27;;;;;;;19.92;50.34;98600.94;4947416;28;20274;-76
2022/10/06 08:34:28;;;;;;;3.65;0.98;;;;;;;20.06;49.16;98603.81;4947496;28;20221;-76
2022/10/06 08:36:56;;;;;;;2.88;0.80;;;;;;;19.98;49.94;98605.16;4948230;28;20274;-78
2022/10/06 08:39:21;;;;;;;4.57;0.75;;;;;;;19.79;51.08;98610.25;4942168;28;20158;-78
2022/10/06 08:41:50;;;;;;;4.03;0.85;;;;;;;19.76;50.26;98607.38;4931996;28;20242;-78
2022/10/06 08:44:39;;;;;;;2.70;0.80;;;;;;;19.58;50.81;98606.03;4947010;28;20317;-78
2022/10/06 08:47:12;;;;;;;3.83;1.10;;;;;;;18.86;51.53;98612.16;4916843;28;20202;-80
2022/10/06 08:49:46;;;;;;;4.43;1.77;;;;;;;19.24;52.21;98615.34;4928831;28;20293;-80
2022/10/06 08:52:18;;;;;;;3.13;0.80;;;;;;;19.59;50.21;98621.63;4914677;28;20188;-79
2022/10/06 08:54:51;;;;;;;4.70;1.30;;;;;;;19.55;50.69;98623.25;4947611;28;20199;-79
2022/10/06 08:57:21;;;;;;;5.50;0.93;;;;;;;19.52;51.12;98623.75;4930658;28;20352;-77
2022/10/06 08:59:48;;;;;;;4.28;1.10;;;;;;;19.76;49.39;98625.88;4930386;28;20653;-77
2022/10/06 09:02:29;;;;;;;3.15;0.57;;;;;;;19.61;48.70;98624.78;4946326;28;20475;-77
2022/10/06 09:04:56;;;;;;;3.88;0.70;;;;;;;19.82;47.80;98628.19;4946787;28;20740;-77
2022/10/06 09:07:42;;;;;;;6.65;1.17;;;;;;;19.70;46.97;98624.25;4947640;28;20217;-77
2022/10/06 09:10:29;;;;;;;3.88;1.10;;;;;;;19.58;46.42;98630.59;4930345;28;20232;-76
2022/10/06 09:12:59;;;;;;;4.75;0.65;;;;;;;19.56;46.85;98638.00;4946322;28;20220;-77
2022/10/06 09:15:32;;;;;;;3.67;1.02;;;;;;;19.56;45.87;98639.88;4947100;28;20286;-77
2022/10/06 09:18:09;;;;;;;3.38;0.60;;;;;;;19.70;46.52;98637.47;4930347;28;20223;-78
2022/10/06 09:20:43;;;;;;;3.20;1.25;;;;;;;19.86;48.13;98640.88;4947318;28;20183;-77
2022/10/06 09:23:14;;;;;;;3.42;0.82;;;;;;;20.08;45.81;98648.50;4946042;28;20460;-78
2022/10/06 09:25:39;;;;;;;4.22;0.82;;;;;;;20.26;47.62;98644.47;4907926;28;20751;-77
2022/10/06 09:28:10;;;;;;;3.20;0.75;;;;;;;20.02;47.28;98642.44;4947769;28;20191;-77
2022/10/06 09:30:36;;;;;;;3.80;0.60;;;;;;;20.18;47.31;98651.09;4910641;28;20084;-79
2022/10/06 09:33:03;;;;;;;3.38;0.80;;;;;;;20.25;44.72;98659.53;4924200;28;20567;-78
2022/10/06 09:35:30;;;;;;;4.57;1.33;;;;;;;20.35;43.95;98656.06;4946351;28;20187;-78
2022/10/06 09:38:03;;;;;;;2.00;0.63;;;;;;;20.19;43.49;98661.41;4910716;28;20359;-78
2022/10/06 09:40:44;;;;;;;5.35;0.80;;;;;;;19.93;43.72;98655.41;4929839;28;20610;-77
2022/10/06 09:43:18;;;;;;;3.88;1.17;;;;;;;20.08;43.36;98656.41;4927756;28;20269;-78
2022/10/06 09:45:43;;;;;;;3.03;0.80;;;;;;;20.08;46.56;98661.72;4946318;28;20216;-78
2022/10/06 09:48:25;;;;;;;4.38;1.00;;;;;;;20.04;46.74;98664.09;4945943;28;20185;-78
2022/10/06 09:51:13;;;;;;;5.68;1.10;;;;;;;20.43;42.83;98660.00;4946709;28;20196;-78
2022/10/06 09:53:40;;;;;;;4.60;0.60;;;;;;;20.76;42.63;98658.50;4916234;28;20200;-78
2022/10/06 09:56:14;;;;;;;3.35;1.00;;;;;;;20.85;43.09;98656.06;4945437;28;20183;-77
2022/10/06 09:58:52;;;;;;;7.10;1.10;;;;;;;20.75;44.05;98657.72;4929806;28;20280;-77
2022/10/06 10:01:22;;;;;;;3.55;0.95;;;;;;;21.08;42.08;98644.78;4911393;28;20192;-77
2022/10/06 10:03:52;;;;;;;3.80;1.20;;;;;;;20.93;42.41;98637.72;4947001;28;20282;-77
2022/10/06 10:06:29;;;;;;;4.18;1.20;;;;;;;21.11;42.50;98654.81;4927036;28;20170;-77
2022/10/06 10:09:12;;;;;;;2.53;0.77;;;;;;;21.19;41.40;98653.44;4913193;28;20188;-76
2022/10/06 10:14:22;;;;;;;3.95;1.33;;;;;;;21.73;38.08;98651.66;4945774;28;20195;-77
2022/10/06 10:16:48;;;;;;;5.45;0.77;;;;;;;21.56;40.68;98651.28;4945418;28;20641;-78
2022/10/06 10:19:23;;;;;;;2.35;0.43;;;;;;;21.51;38.35;98658.22;4945408;28;20165;-77
2022/10/06 10:21:49;;;;;;;3.55;0.77;;;;;;;21.60;38.34;98655.75;4912823;28;20192;-77
2022/10/06 10:24:32;;;;;;;1.88;0.57;;;;;;;21.54;38.80;98656.06;4945604;28;20245;-78
2022/10/06 10:27:23;;;;;;;8.45;1.60;;;;;;;21.29;39.08;98649.91;4929104;28;20794;-77
2022/10/06 10:30:03;;;;;;;6.45;1.33;;;;;;;21.16;39.21;98650.53;4929049;28;20681;-76
2022/10/06 10:32:50;;;;;;;6.47;1.48;;;;;;;20.91;39.16;98654.97;4944651;28;20286;-77
2022/10/06 10:35:23;;;;;;;3.88;0.70;;;;;;;20.89;39.56;98654.47;4945031;28;20208;-77
2022/10/06 10:37:52;;;;;;;4.25;0.88;;;;;;;20.88;40.68;98661.59;4928684;28;20582;-77
2022/10/06 10:40:31;;;;;;;2.42;0.60;;;;;;;21.02;41.27;98667.06;4944688;28;20278;-77
2022/10/06 10:43:17;;;;;;;2.65;0.60;;;;;;;21.15;40.01;98665.66;4944130;28;20079;-77
2022/10/06 10:45:46;;;;;;;3.65;0.85;;;;;;;21.22;36.85;98665.34;4928298;28;20184;-76
2022/10/06 10:48:27;;;;;;;3.65;0.70;;;;;;;21.18;38.16;98672.25;4944549;28;20198;-77
2022/10/06 10:51:04;;;;;;;4.60;0.98;;;;;;;21.31;36.97;98658.38;4928767;28;20635;-77
2022/10/06 10:53:58;;;;;;;3.58;1.42;;;;;;;21.46;36.90;98662.75;4944995;28;20212;-77
2022/10/06 10:56:25;;;;;;;5.75;1.13;;;;;;;21.65;38.65;98663.66;4926793;28;20285;-77
2022/10/06 10:59:18;;;;;;;2.17;0.68;;;;;;;21.63;34.05;98660.50;4925978;28;20374;-77
2022/10/06 11:01:50;;;;;;;3.60;0.52;;;;;;;21.65;35.12;98658.34;4945861;28;20073;-77
2022/10/06 11:04:16;;;;;;;5.22;1.00;;;;;;;22.08;34.70;98665.59;4927566;28;20179;-77
2022/10/06 11:07:18;;;;;;;2.20;0.80;;;;;;;21.83;34.24;98664.81;4944770;28;20106;-77
2022/10/06 11:10:21;;;;;;;2.42;0.60;;;;;;;21.40;36.86;98666.50;4944548;28;20204;-76
2022/10/06 11:12:49;;;;;;;4.60;1.13;;;;;;;21.40;36.90;98661.22;4927836;28;20207;-76
2022/10/06 11:15:34;;;;;;;4.75;0.80;;;;;;;21.55;38.60;98655.00;4946227;28;20283;-77
2022/10/06 11:18:30;;;;;;;3.85;1.02;;;;;;;21.84;38.46;98654.97;4944237;28;20157;-77
2022/10/06 11:21:06;;;;;;;2.05;0.70;;;;;;;22.04;36.22;98648.66;4924453;28;20211;-77
2022/10/06 11:23:39;;;;;;;2.03;0.68;;;;;;;22.54;35.31;98656.31;4927627;28;20270;-76
2022/10/06 11:26:13;;;;;;;3.28;1.00;;;;;;;22.73;35.39;98657.09;4944327;28;20232;-77
2022/10/06 11:28:44;;;;;;;4.78;1.00;;;;;;;21.97;37.16;98649.00;4944305;28;20237;-76
2022/10/06 11:31:34;;;;;;;2.30;0.90;;;;;;;22.26;37.65;98651.59;4927999;28;20290;-77
2022/10/06 11:34:02;;;;;;;2.28;0.75;;;;;;;22.53;35.88;98649.41;4944118;28;20318;-77
2022/10/06 11:36:43;;;;;;;4.40;0.82;;;;;;;22.17;37.12;98647.97;4943977;28;20161;-77
2022/10/06 11:39:19;;;;;;;4.47;0.80;;;;;;;22.29;37.15;98644.94;4927822;28;20142;-77
2022/10/06 11:41:58;;;;;;;3.30;1.00;;;;;;;22.74;35.80;98633.97;4927996;28;20310;-77
2022/10/06 11:44:48;;;;;;;2.50;1.00;;;;;;;23.28;34.90;98631.84;4941637;28;20274;-77
2022/10/06 11:47:18;;;;;;;3.17;0.82;;;;;;;24.01;34.16;98624.94;4961212;28;20251;-77
2022/10/06 11:49:52;;;;;;;2.78;0.82;;;;;;;24.19;33.19;98627.78;4954691;28;20294;-76
2022/10/06 11:52:17;;;;;;;3.63;0.85;;;;;;;24.85;33.24;98634.31;4944663;28;20676;-77
2022/10/06 11:54:54;;;;;;;2.20;1.00;;;;;;;25.26;30.48;98626.44;4945084;28;20211;-77
2022/10/06 11:57:22;;;;;;;3.10;1.00;;;;;;;25.59;29.45;98629.59;4947996;28;20442;-77
2022/10/06 11:59:55;;;;;;;1.98;0.85;;;;;;;25.81;29.29;98623.41;4932043;28;20660;-77